Nearby METAR Reports

 

KCRE - North Myrtle Bea, South Carolina, USA
Distance from station: SW 11mi, 18km
Updated: 05/23/2018 7:53am
Partly cloudy
Partly cloudy
 Wind from SW
Wind: SW 9 mph , 15 km/h
Temperature: 75°F , 24°C
Dew Point: 72°F , 22°C
Humidity: 89%
Barometer: 30.11 inHg , 1019.6 hPa
Clouds: Partly cloudy
Visibility: 10 miles , 16 km
Cloud details: Partly cloudy 6000 ft
2018/05/23 11:53 KCRE 231153Z 23008KT 10SM SCT060 24/22 A3011 RMK AO1 SLP197 T02390222 10239 20222 53016
KCPC - Whiteville, North Carolina, USA
Distance from station: NNW 26mi, 42km
Updated: 05/23/2018 8:15am
Mist, Overcast
Mist, Overcast
 Wind from SW
Wind: SW 5 mph , 7 km/h
Temperature: 73°F , 23°C
Dew Point: 72°F , 22°C
Humidity: 94%
Barometer: 30.11 inHg , 1019.6 hPa
Summary: Mist
Clouds: Overcast
Visibility: 4 miles , 6 km
Cloud details: Overcast 500 ft
2018/05/23 12:15 KCPC 231215Z AUTO 22004KT 4SM BR OVC005 23/22 A3011 RMK AO2 T02250215
KMYR - Myrtle Beach, South Carolina, USA
Distance from station: SW 27mi, 43km
Updated: 05/23/2018 7:56am
Mostly cloudy
Mostly cloudy
 Wind from SW
Wind: SW 7 mph , 11 km/h
Temperature: 75°F , 24°C
Dew Point: 72°F , 22°C
Humidity: 89%
Barometer: 30.13 inHg , 1020.3 hPa
Clouds: Mostly cloudy
Visibility: 10 miles , 16 km
Cloud details: Partly cloudy 6000 ft
Mostly cloudy 8000 ft
2018/05/23 11:56 KMYR 231156Z 23006KT 10SM SCT060 BKN080 24/22 A3013 RMK AO2 SLP203 T02390217 10239 20228 53017
 
KSUT - Southport, North Carolina, USA
Distance from station: E 28mi, 45km
Updated: 05/23/2018 8:20am
Overcast
Overcast
 Wind from SW
Wind: SW 12 mph , 19 km/h
Temperature: 77°F , 25°C
Dew Point: 73°F , 23°C
Humidity: 89%
Barometer: 30.12 inHg , 1020 hPa
Clouds: Overcast
Visibility: 10 miles , 16 km
Cloud details: Partly cloudy 900 ft
Mostly cloudy 1400 ft
Overcast 7000 ft
2018/05/23 12:20 KSUT 231220Z AUTO 23010KT 10SM SCT009 BKN014 OVC070 25/23 A3012 RMK AO2 T02450227
KHYW - Conway-Horry Cty, South Carolina, USA
Distance from station: WSW 32mi, 52km
Updated: 05/23/2018 8:15am
Mist, Overcast
Mist, Overcast
 Wind from SW
Wind: SW 3 mph , 6 km/h
Temperature: 72°F , 22°C
Dew Point: 72°F , 22°C
Humidity: 100%
Barometer: 30.13 inHg , 1020.3 hPa
Summary: Mist
Clouds: Overcast
Visibility: 5 miles , 8 km
Cloud details: Overcast 500 ft
2018/05/23 12:15 KHYW 231215Z AUTO 23003KT 5SM BR OVC005 22/22 A3013 RMK AO2
KILM - Wilmington, North Carolina, USA
Distance from station: ENE 45mi, 72km
Updated: 05/23/2018 7:53am
Partly cloudy
Partly cloudy
 Wind from SW
Wind: SW 10 mph , 17 km/h
Temperature: 75°F , 24°C
Dew Point: 72°F , 22°C
Humidity: 89%
Barometer: 30.10 inHg , 1019.3 hPa
Clouds: Partly cloudy
Visibility: 10 miles , 16 km
Cloud details: Partly cloudy 1900 ft
2018/05/23 11:53 KILM 231153Z 23009KT 10SM SCT019 24/22 A3010 RMK AO2 SLP194 70043 T02440217 10244 20222 53010
 
KEYF - Elizabethtown, North Carolina, USA
Distance from station: N 47mi, 75km
Updated: 05/23/2018 8:15am
Overcast
Overcast
 Wind from SW
Wind: SW 10 mph , 17 km/h
Temperature: 73°F , 23°C
Dew Point: 70°F , 21°C
Humidity: 89%
Barometer: 30.11 inHg , 1019.6 hPa
Clouds: Overcast
Visibility: 10 miles , 16 km
Cloud details: Mostly cloudy 700 ft
Mostly cloudy 1100 ft
Overcast 2000 ft
2018/05/23 12:15 KEYF 231215Z AUTO 23009KT 10SM BKN007 BKN011 OVC020 23/21 A3011 RMK AO2 T02320213
KMAO - Marion, South Carolina, USA
Distance from station: WNW 47mi, 76km
Updated: 12/31/1969 7:00pm
NOT Current
unable to load KMAO data RC=404 Not Found
unable to load KMAO data RC=404 Not Found
 
KLBT - Lumberton, North Carolina, USA
Distance from station: NNW 55mi, 88km
Updated: 05/23/2018 8:12am
Overcast
Overcast
 Wind from SW
Wind: SW 10 mph , 17 km/h
Temperature: 75°F , 24°C
Dew Point: 70°F , 21°C
Humidity: 83%
Barometer: 30.10 inHg , 1019.3 hPa
Clouds: Overcast
Visibility: 10 miles , 16 km
Cloud details: Overcast 1200 ft
2018/05/23 12:12 KLBT 231212Z AUTO 22009KT 10SM OVC012 24/21 A3010 RMK AO2 T02390211
 
KGGE - Georgetown, South Carolina, USA
Distance from station: SW 60mi, 97km
Updated: 05/23/2018 8:15am
Partly cloudy
Partly cloudy
 Wind from SW
Wind: SW 9 mph , 15 km/h
Temperature: 73°F , 23°C
Dew Point: 73°F , 23°C
Humidity: 100%
Barometer: 30.13 inHg , 1020.3 hPa
Clouds: Partly cloudy
Visibility: 10 miles , 16 km
Cloud details: Partly cloudy 3000 ft
Partly cloudy 3600 ft
2018/05/23 12:15 KGGE 231215Z AUTO 23008KT 10SM SCT030 SCT036 23/23 A3013 RMK AO2
KFLO - Florence, South Carolina, USA
Distance from station: WNW 69mi, 111km
Updated: 05/23/2018 7:53am
Overcast
Overcast
 Wind from SW
Wind: SW 5 mph , 7 km/h
Temperature: 73°F , 23°C
Dew Point: 72°F , 22°C
Humidity: 94%
Barometer: 30.11 inHg , 1019.6 hPa
Clouds: Overcast
Visibility: 8 miles , 13 km
Cloud details: Mostly cloudy 600 ft
Overcast 1800 ft
2018/05/23 11:53 KFLO 231153Z 23004KT 8SM BKN006 OVC018 23/22 A3011 RMK AO2 SLP194 70003 T02330217 10233 20211 53016
KCTZ - Clinton, North Carolina, USA
Distance from station: N 74mi, 119km
Updated: 05/23/2018 8:15am
Overcast
Overcast
 Wind from SW
Wind: SW 6 mph , 9 km/h
Temperature: 72°F , 22°C
Dew Point: 72°F , 22°C
Humidity: 100%
Barometer: 30.11 inHg , 1019.6 hPa
Clouds: Overcast
Visibility: 10 miles , 16 km
Cloud details: Partly cloudy 800 ft
Overcast 1300 ft
2018/05/23 12:15 KCTZ 231215Z AUTO 22005KT 10SM SCT008 OVC013 22/22 A3011 RMK AO2 T02200220
 
KMEB - Maxton, North Carolina, USA
Distance from station: NW 75mi, 120km
Updated: 05/23/2018 7:52am
Overcast
Overcast
 Wind from WSW
Wind: WSW 6 mph , 9 km/h
Temperature: 73°F , 23°C
Dew Point: 70°F , 21°C
Humidity: 89%
Barometer: 30.11 inHg , 1019.6 hPa
Clouds: Overcast
Visibility: 10 miles , 16 km
Cloud details: Overcast 1300 ft
2018/05/23 11:52 KMEB 231152Z AUTO 24005KT 10SM OVC013 23/21 A3011 RMK AO2 SLP192 T02330206 10233 20206 53016
KCKI - Kingstree, South Carolina, USA
Distance from station: W 75mi, 121km
Updated: 05/23/2018 8:15am
Overcast
Overcast
 Wind from calm
Wind: Calm
Temperature: 70°F , 21°C
Dew Point: 70°F , 21°C
Humidity: 100%
Barometer: 30.12 inHg , 1020 hPa
Clouds: Overcast
Visibility: 10 miles , 16 km
Cloud details: Mostly cloudy 900 ft
Overcast 1400 ft
2018/05/23 12:15 KCKI 231215Z AUTO 00000KT 10SM BKN009 OVC014 21/21 A3012 RMK AO2
KFAY - Fayetteville, North Carolina, USA
Distance from station: NNW 75mi, 121km
Updated: 05/23/2018 8:16am
Overcast
Overcast
 Wind from WSW
Wind: WSW 9 mph , 15 km/h
Temperature: 72°F , 22°C
Dew Point: 70°F , 21°C
Humidity: 94%
Barometer: 30.09 inHg , 1019 hPa
Clouds: Overcast
Visibility: 10 miles , 16 km
Cloud details: Overcast 1000 ft
2018/05/23 12:16 KFAY 231216Z 25008KT 10SM OVC010 22/21 A3009 RMK AO2 CIG 007V012 T02220206
 
KBBP - Marlboro Cnty, South Carolina, USA
Distance from station: NW 82mi, 132km
Updated: 05/23/2018 8:15am
Mostly cloudy
Mostly cloudy
 Wind from calm
Wind: Calm
Temperature: 73°F , 23°C
Dew Point: 72°F , 22°C
Humidity: 94%
Barometer: 30.11 inHg , 1019.6 hPa
Clouds: Mostly cloudy
Visibility: 10 miles , 16 km
Cloud details: Mostly cloudy 800 ft
2018/05/23 12:15 KBBP 231215Z AUTO 00000KT 10SM BKN008 23/22 A3011 RMK AO2
KDPL - Kenansville/Dupl, North Carolina, USA
Distance from station: NNE 82mi, 132km
Updated: 05/23/2018 8:15am
Overcast
Overcast
 Wind from WSW
Wind: WSW 10 mph , 17 km/h
Temperature: 72°F , 22°C
Dew Point: 70°F , 21°C
Humidity: 94%
Barometer: 30.10 inHg , 1019.3 hPa
Clouds: Overcast
Visibility: 7 miles , 11 km
Cloud details: Mostly cloudy 900 ft
Overcast 1500 ft
2018/05/23 12:15 KDPL 231215Z AUTO 24009KT 7SM BKN009 OVC015 22/21 A3010 RMK AO2
KOAJ - Jacksonville, North Carolina, USA
Distance from station: NE 82mi, 132km
Updated: 05/23/2018 7:56am
Mostly cloudy
Mostly cloudy
 Wind from SW
Wind: SW 9 mph , 15 km/h
Temperature: 73°F , 23°C
Dew Point: 72°F , 22°C
Humidity: 94%
Barometer: 30.10 inHg , 1019.3 hPa
Clouds: Mostly cloudy
Visibility: 10 miles , 16 km
Cloud details: Mostly cloudy 700 ft
2018/05/23 11:56 KOAJ 231156Z AUTO 22008KT 10SM BKN007 23/22 A3010 RMK AO2 SLP196 T02330217 10233 20206 51007
 
KUDG - Darlington Cnty, South Carolina, USA
Distance from station: WNW 83mi, 134km
Updated: 05/23/2018 7:56am

 Wind from SW
Wind: SW 7 mph , 11 km/h
Temperature: 72°F , 22°C
Dew Point: 70°F , 21°C
Humidity: 94%
Barometer: 30.11 inHg , 1019.6 hPa
Visibility: 10 miles , 16 km
2018/05/23 11:56 KUDG 231156Z AUTO 22006KT 10SM 22/21 A3011 RMK AO2 SLP200 T02220211 10222 20217 53016 $
KNCA - New River Mcas, North Carolina, USA
Distance from station: NE 84mi, 135km
Updated: 12/31/1969 7:00pm
NOT Current
unable to load KNCA data RC=404 Not Found
unable to load KNCA data RC=404 Not Found